Time;durP1;ratioP1;P1;durP2;ratioP2;P2;SDS_P1;SDS_P2;PMS_P1;PMS_P2;Temp;Humidity;BMP_temperature;BMP_pressure;BME280_temperature;BME280_humidity;BME280_pressure;Samples;Min_cycle;Max_cycle;Signal;HPM_P1;HPM_P2
2023/08/29 00:00:34;;;;;;;;;;;;;;;17.53;43.94;100061.38;5059219;28;1178;-60
2023/08/29 00:03:03;;;;;;;;;;;;;;;18.02;45.09;100057.38;5075759;28;852;-60
2023/08/29 00:05:29;;;;;;;;;;;;;;;17.75;45.16;100053.38;5074364;28;1062;-60
2023/08/29 00:07:54;;;;;;;;;;;;;;;17.64;45.05;100051.88;5059142;28;1051;-60
2023/08/29 00:10:20;;;;;;;;;;;;;;;17.55;44.63;100059.97;5059674;28;1146;-61
2023/08/29 00:12:45;;;;;;;;;;;;;;;17.51;44.25;100053.44;5058974;28;1913;-61
2023/08/29 00:15:11;;;;;;;;;;;;;;;17.54;44.05;100052.84;5077645;28;1193;-60
2023/08/29 00:17:36;;;;;;;;;;;;;;;17.50;44.25;100048.25;5067098;28;1047;-60
2023/08/29 00:20:02;;;;;;;;;;;;;;;17.43;44.03;100052.19;5072922;28;988;-60
2023/08/29 00:22:28;;;;;;;;;;;;;;;17.43;43.99;100049.44;5059232;28;1182;-60
2023/08/29 00:24:54;;;;;;;;;;;;;;;17.44;43.69;100051.06;5059412;28;1096;-60
2023/08/29 00:27:20;;;;;;;;;;;;;;;18.05;45.26;100050.47;5076380;28;2083;-61
2023/08/29 00:29:47;;;;;;;;;;;;;;;17.78;45.01;100049.19;5060305;28;1047;-60
2023/08/29 00:32:13;;;;;;;;;;;;;;;17.67;44.78;100047.72;5041220;28;1318;-60
2023/08/29 00:34:39;;;;;;;;;;;;;;;17.63;44.34;100039.25;5054382;28;1979;-61
2023/08/29 00:37:04;;;;;;;;;;;;;;;17.67;44.16;100045.81;5041272;28;1135;-61
2023/08/29 00:39:30;;;;;;;;;;;;;;;17.65;43.82;100048.03;5077603;28;1082;-62
2023/08/29 00:41:55;;;;;;;;;;;;;;;17.62;43.69;100048.63;5066269;28;1015;-61
2023/08/29 00:44:21;;;;;;;;;;;;;;;17.53;43.81;100040.25;5040839;28;1087;-61
2023/08/29 00:46:48;;;;;;;;;;;;;;;17.41;43.81;100040.66;5040580;28;1226;-60
2023/08/29 00:49:15;;;;;;;;;;;;;;;17.50;43.75;100034.50;5040943;28;1273;-59
2023/08/29 00:51:40;;;;;;;;;;;;;;;17.45;43.79;100033.47;5067671;28;994;-60
2023/08/29 00:54:06;;;;;;;;;;;;;;;17.50;43.69;100037.25;5054825;28;1909;-60
2023/08/29 00:56:32;;;;;;;;;;;;;;;18.10;44.32;100039.34;5041138;28;1789;-60
2023/08/29 00:58:58;;;;;;;;;;;;;;;17.92;45.30;100030.84;5058146;28;1147;-60
2023/08/29 01:01:23;;;;;;;;;;;;;;;17.63;45.29;100033.78;5053008;28;1020;-60
2023/08/29 01:03:49;;;;;;;;;;;;;;;17.71;44.67;100035.00;5055024;28;957;-59
2023/08/29 01:06:14;;;;;;;;;;;;;;;17.57;44.76;100034.94;5058529;28;1110;-59
2023/08/29 01:08:40;;;;;;;;;;;;;;;17.64;44.06;100029.88;5057355;28;1072;-59
2023/08/29 01:11:24;;;;;;;;;;;;;;;17.53;44.15;100021.00;5051661;28;1429;-59
2023/08/29 01:13:49;;;;;;;;;;;;;;;17.54;43.96;100013.56;5045398;28;1905;-59
2023/08/29 01:16:16;;;;;;;;;;;;;;;17.43;44.04;100013.72;5053370;28;1052;-59
2023/08/29 01:18:41;;;;;;;;;;;;;;;17.48;43.78;100015.56;5040364;28;1179;-59
2023/08/29 01:21:16;;;;;;;;;;;;;;;17.43;43.93;100007.38;5058635;28;1178;-59
2023/08/29 01:23:43;;;;;;;;;;;;;;;17.44;43.73;100018.09;5069732;28;1135;-58
2023/08/29 01:26:12;;;;;;;;;;;;;;;17.36;43.72;100010.53;5065306;28;2363;-59
2023/08/29 01:28:37;;;;;;;;;;;;;;;17.36;43.74;100007.78;5040191;28;1270;-59
2023/08/29 01:31:03;;;;;;;;;;;;;;;17.34;43.60;100010.00;5042475;28;1143;-59
2023/08/29 01:33:29;;;;;;;;;;;;;;;17.41;43.62;100009.63;5050927;28;1969;-59
2023/08/29 01:35:54;;;;;;;;;;;;;;;17.38;43.78;100002.78;5052595;28;1098;-59
2023/08/29 01:38:20;;;;;;;;;;;;;;;18.13;44.77;100009.31;5044481;28;1239;-59
2023/08/29 01:40:46;;;;;;;;;;;;;;;17.68;45.11;100008.13;5056702;28;1099;-59
2023/08/29 01:43:11;;;;;;;;;;;;;;;17.52;44.94;100004.81;5057565;28;1058;-60
2023/08/29 01:45:37;;;;;;;;;;;;;;;17.60;44.39;100009.63;5057628;28;1098;-59
2023/08/29 01:48:04;;;;;;;;;;;;;;;17.43;44.50;100010.13;5066773;28;1024;-60
2023/08/29 01:50:29;;;;;;;;;;;;;;;17.48;44.05;100012.81;5058486;28;1509;-60
2023/08/29 01:52:55;;;;;;;;;;;;;;;17.52;43.96;100016.59;5042313;28;1972;-60
2023/08/29 01:55:21;;;;;;;;;;;;;;;17.47;43.77;100018.63;5045362;28;1915;-60
2023/08/29 01:57:47;;;;;;;;;;;;;;;17.38;43.91;100012.97;5077195;28;1050;-60
2023/08/29 02:00:12;;;;;;;;;;;;;;;17.38;43.71;100005.53;5046256;28;1314;-60
2023/08/29 02:02:41;;;;;;;;;;;;;;;18.15;45.10;100013.69;5076352;28;960;-60
2023/08/29 02:05:07;;;;;;;;;;;;;;;17.70;45.36;100017.72;5056885;28;1146;-60
2023/08/29 02:07:32;;;;;;;;;;;;;;;17.63;45.12;100014.53;5057253;28;1008;-60
2023/08/29 02:10:00;;;;;;;;;;;;;;;17.54;44.87;100014.34;5057131;28;1147;-60
2023/08/29 02:12:25;;;;;;;;;;;;;;;17.56;44.40;100014.09;5056753;28;1963;-60
2023/08/29 02:14:51;;;;;;;;;;;;;;;17.52;44.31;100010.31;5071673;28;1043;-61
2023/08/29 02:17:16;;;;;;;;;;;;;;;17.54;44.21;100013.56;5050616;28;1420;-60
2023/08/29 02:19:43;;;;;;;;;;;;;;;17.51;44.09;100014.16;5070007;28;1008;-60
2023/08/29 02:22:12;;;;;;;;;;;;;;;18.52;44.62;100015.44;5056556;28;1105;-59
2023/08/29 02:24:37;;;;;;;;;;;;;;;17.92;45.77;100008.00;5070478;28;1046;-61
2023/08/29 02:27:04;;;;;;;;;;;;;;;17.83;45.19;100020.81;5053092;28;2727;-60
2023/08/29 02:29:30;;;;;;;;;;;;;;;17.69;44.81;100021.56;5073509;28;1142;-60
2023/08/29 02:31:55;;;;;;;;;;;;;;;17.68;44.70;100019.13;5057490;28;1193;-59
2023/08/29 02:34:21;;;;;;;;;;;;;;;17.60;44.29;100017.88;5059879;28;2097;-60
2023/08/29 02:36:46;;;;;;;;;;;;;;;17.66;44.27;100022.16;5067103;28;1038;-60
2023/08/29 02:39:12;;;;;;;;;;;;;;;17.56;44.18;100016.84;5046371;28;1412;-61
2023/08/29 02:41:37;;;;;;;;;;;;;;;17.61;43.77;100030.47;5076518;28;1018;-61
2023/08/29 02:44:03;;;;;;;;;;;;;;;17.60;43.65;100028.88;5060175;28;1214;-59
2023/08/29 02:46:28;;;;;;;;;;;;;;;17.47;43.74;100024.13;5066701;28;1098;-61
2023/08/29 02:48:54;;;;;;;;;;;;;;;17.48;43.60;100014.75;5059678;28;1178;-60
2023/08/29 02:51:19;;;;;;;;;;;;;;;17.50;43.75;100018.00;5064581;28;1103;-61
2023/08/29 02:53:45;;;;;;;;;;;;;;;17.78;44.11;100010.69;5073074;28;1968;-61
2023/08/29 02:56:10;;;;;;;;;;;;;;;18.24;45.40;100017.38;5038765;28;2342;-61
2023/08/29 02:58:37;;;;;;;;;;;;;;;17.79;45.75;100004.91;5059167;28;1040;-61
2023/08/29 03:01:09;;;;;;;;;;;;;;;17.65;45.23;100005.97;5076492;28;1109;-60
2023/08/29 03:03:35;;;;;;;;;;;;;;;17.67;44.64;100007.31;5050855;28;1392;-61
2023/08/29 03:06:00;;;;;;;;;;;;;;;17.64;44.40;100010.63;5047889;28;1099;-60
2023/08/29 03:08:26;;;;;;;;;;;;;;;17.58;44.41;100009.91;5069538;28;1068;-60
2023/08/29 03:10:52;;;;;;;;;;;;;;;17.60;43.78;100001.38;5048184;28;1456;-59
2023/08/29 03:13:18;;;;;;;;;;;;;;;17.51;43.91;99997.66;5055060;28;1982;-60
2023/08/29 03:15:47;;;;;;;;;;;;;;;17.60;43.74;99990.38;5037904;28;1131;-57
2023/08/29 03:18:13;;;;;;;;;;;;;;;17.55;43.66;99993.22;5055371;28;1313;-57
2023/08/29 03:20:41;;;;;;;;;;;;;;;17.57;43.50;99996.47;5057758;28;1332;-57
2023/08/29 03:23:09;;;;;;;;;;;;;;;17.51;43.45;100003.97;5057987;28;1146;-57
2023/08/29 03:25:34;;;;;;;;;;;;;;;17.40;43.77;100013.50;5072340;28;2413;-56
2023/08/29 03:28:00;;;;;;;;;;;;;;;17.35;43.70;99997.91;5067094;28;1230;-57
2023/08/29 03:30:25;;;;;;;;;;;;;;;18.46;44.33;100000.16;5065458;28;1190;-55
2023/08/29 03:32:52;;;;;;;;;;;;;;;17.88;45.45;100006.94;5046204;28;1917;-57
2023/08/29 03:35:18;;;;;;;;;;;;;;;17.62;45.24;100016.44;5049737;28;1503;-57
2023/08/29 03:37:43;;;;;;;;;;;;;;;17.70;44.78;100006.72;5079179;28;1092;-57
2023/08/29 03:40:10;;;;;;;;;;;;;;;17.65;44.46;100017.78;5068603;28;1103;-56
2023/08/29 03:42:35;;;;;;;;;;;;;;;17.48;44.54;100012.00;5058415;28;1387;-57
2023/08/29 03:45:01;;;;;;;;;;;;;;;17.60;43.90;100006.88;5058910;28;1206;-56
2023/08/29 03:47:26;;;;;;;;;;;;;;;17.48;44.06;100003.78;5059402;28;1206;-57
2023/08/29 03:49:53;;;;;;;;;;;;;;;17.57;43.88;100015.69;5058198;28;1246;-58
2023/08/29 03:52:25;;;;;;;;;;;;;;;17.55;43.80;100004.19;5064069;28;1234;-57
2023/08/29 03:54:52;;;;;;;;;;;;;;;17.58;44.75;100003.59;5061067;28;1134;-58
2023/08/29 03:57:19;;;;;;;;;;;;;;;17.60;44.54;100001.38;5055025;28;2392;-57
2023/08/29 03:59:44;;;;;;;;;;;;;;;17.47;44.67;100002.13;5060595;28;1113;-57
2023/08/29 04:02:10;;;;;;;;;;;;;;;17.50;44.40;100001.53;5047887;28;1526;-57
2023/08/29 04:04:35;;;;;;;;;;;;;;;17.55;44.00;100009.69;5046121;28;887;-57
2023/08/29 04:07:01;;;;;;;;;;;;;;;17.45;43.98;99992.25;5054641;28;1122;-57
2023/08/29 04:09:27;;;;;;;;;;;;;;;17.42;44.15;99995.59;5054303;28;1356;-57
2023/08/29 04:11:53;;;;;;;;;;;;;;;17.42;43.93;100003.84;5059494;28;1040;-57
2023/08/29 04:14:18;;;;;;;;;;;;;;;17.43;44.08;100002.72;5041570;28;1914;-56
2023/08/29 04:16:44;;;;;;;;;;;;;;;17.43;43.83;99997.22;5068264;28;1015;-58
2023/08/29 04:19:10;;;;;;;;;;;;;;;17.39;43.92;99998.09;5043721;28;1778;-59
2023/08/29 04:21:36;;;;;;;;;;;;;;;18.14;45.45;99999.09;5070411;28;1158;-57
2023/08/29 04:24:02;;;;;;;;;;;;;;;17.72;45.56;99992.66;5059357;28;1226;-57
2023/08/29 04:26:28;;;;;;;;;;;;;;;17.69;45.12;99991.31;5042792;28;2643;-57
2023/08/29 04:28:53;;;;;;;;;;;;;;;17.70;44.54;99997.66;5052927;28;1134;-58
2023/08/29 04:31:19;;;;;;;;;;;;;;;17.60;44.69;99991.19;5061068;28;1154;-58
2023/08/29 04:33:45;;;;;;;;;;;;;;;17.66;44.18;100000.16;5067624;28;2005;-57
2023/08/29 04:36:10;;;;;;;;;;;;;;;17.56;44.10;100006.66;5059431;28;1189;-57
2023/08/29 04:38:36;;;;;;;;;;;;;;;17.54;43.97;99992.38;5040767;28;1099;-58
2023/08/29 04:41:03;;;;;;;;;;;;;;;17.47;44.08;100000.19;5075793;28;1134;-59
2023/08/29 04:43:29;;;;;;;;;;;;;;;17.98;44.31;100009.56;5078796;28;1035;-55
2023/08/29 04:45:54;;;;;;;;;;;;;;;18.61;43.87;99999.88;5065018;28;1142;-57
2023/08/29 04:48:20;;;;;;;;;;;;;;;18.37;44.50;99993.72;5060508;28;1170;-56
2023/08/29 04:50:45;;;;;;;;;;;;;;;18.23;45.00;99997.28;5047311;28;1139;-54
2023/08/29 04:53:11;;;;;;;;;;;;;;;18.08;45.93;99995.63;5078230;28;1958;-56
2023/08/29 04:55:37;;;;;;;;;;;;;;;18.06;45.98;100011.63;5055933;28;2333;-55
2023/08/29 04:58:03;;;;;;;;;;;;;;;18.02;46.40;100018.03;5040027;28;1008;-55
2023/08/29 05:00:28;;;;;;;;;;;;;;;17.94;46.87;100005.78;5053864;28;1339;-57
2023/08/29 05:02:54;;;;;;;;;;;;;;;17.84;47.31;99997.66;5040359;28;1210;-58
2023/08/29 05:05:20;;;;;;;;;;;;;;;17.84;47.40;100004.00;5075536;28;1150;-60
2023/08/29 05:07:45;;;;;;;;;;;;;;;17.77;47.61;100001.63;5078246;28;1086;-54
2023/08/29 05:10:11;;;;;;;;;;;;;;;17.75;47.71;99998.38;5060982;28;1158;-54
2023/08/29 05:12:37;;;;;;;;;;;;;;;17.73;47.86;99997.84;5051275;28;1906;-54
2023/08/29 05:15:03;;;;;;;;;;;;;;;17.69;48.07;100004.25;5073855;28;1043;-55
2023/08/29 05:17:28;;;;;;;;;;;;;;;17.65;48.30;100000.47;5056935;28;1372;-55
2023/08/29 05:19:54;;;;;;;;;;;;;;;17.62;48.63;99996.38;5060147;28;1138;-55
2023/08/29 05:22:19;;;;;;;;;;;;;;;17.59;48.77;99995.03;5058440;28;1015;-55
2023/08/29 05:24:47;;;;;;;;;;;;;;;17.60;48.79;100004.13;5058137;28;1217;-55
2023/08/29 05:27:14;;;;;;;;;;;;;;;17.57;48.78;100001.97;5072330;28;2551;-56
2023/08/29 05:29:40;;;;;;;;;;;;;;;17.55;48.94;100012.44;5059727;28;1094;-56
2023/08/29 05:32:06;;;;;;;;;;;;;;;17.51;49.24;100003.16;5069009;28;1095;-56
2023/08/29 05:34:32;;;;;;;;;;;;;;;17.45;49.19;100000.47;5073193;28;1988;-55
2023/08/29 05:36:57;;;;;;;;;;;;;;;17.44;49.64;100003.53;5068288;28;1059;-56
2023/08/29 05:39:23;;;;;;;;;;;;;;;17.44;49.51;99998.03;5064821;28;1217;-56
2023/08/29 05:41:49;;;;;;;;;;;;;;;17.47;49.61;99996.63;5077192;28;852;-56
2023/08/29 05:44:15;;;;;;;;;;;;;;;17.35;49.93;99994.31;5077539;28;1050;-56
2023/08/29 05:46:40;;;;;;;;;;;;;;;17.39;49.85;99996.19;5066384;28;1088;-56
2023/08/29 05:49:06;;;;;;;;;;;;;;;17.39;49.99;99993.44;5070677;28;1039;-55
2023/08/29 05:51:31;;;;;;;;;;;;;;;17.39;50.12;99996.19;5057554;28;1086;-55
2023/08/29 05:53:57;;;;;;;;;;;;;;;17.36;50.07;100002.28;5071274;28;1913;-55
2023/08/29 05:56:22;;;;;;;;;;;;;;;17.36;50.03;99996.78;5057273;28;1795;-54
2023/08/29 05:58:48;;;;;;;;;;;;;;;17.35;50.39;99999.81;5061502;28;1179;-55
2023/08/29 06:01:14;;;;;;;;;;;;;;;17.35;50.54;100003.41;5067150;28;1090;-57
2023/08/29 06:03:40;;;;;;;;;;;;;;;17.35;50.60;100000.66;5070444;28;1103;-56
2023/08/29 06:06:05;;;;;;;;;;;;;;;17.30;50.58;99995.22;5065619;28;829;-56
2023/08/29 06:08:33;;;;;;;;;;;;;;;17.33;50.73;99997.38;5061110;28;1158;-55
2023/08/29 06:11:00;;;;;;;;;;;;;;;17.36;50.57;99999.53;5066393;28;1281;-59
2023/08/29 06:13:26;;;;;;;;;;;;;;;17.32;50.76;100006.75;5070594;28;1901;-56
2023/08/29 06:15:51;;;;;;;;;;;;;;;17.36;50.78;99996.78;5057186;28;1111;-57
2023/08/29 06:18:17;;;;;;;;;;;;;;;17.34;50.70;99998.19;5076277;28;1162;-58
2023/08/29 06:20:43;;;;;;;;;;;;;;;17.35;50.82;99997.91;5066166;28;1143;-59
2023/08/29 06:23:08;;;;;;;;;;;;;;;17.29;50.93;99996.31;5060924;28;1101;-58
2023/08/29 06:25:34;;;;;;;;;;;;;;;17.33;50.96;99999.31;5073344;28;1820;-60
2023/08/29 06:27:59;;;;;;;;;;;;;;;17.37;50.92;99995.66;5070119;28;1431;-56
2023/08/29 06:30:26;;;;;;;;;;;;;;;17.30;51.17;99995.22;5066857;28;995;-56
2023/08/29 06:32:52;;;;;;;;;;;;;;;17.26;51.22;100002.41;5059349;28;1915;-58
2023/08/29 06:35:17;;;;;;;;;;;;;;;17.37;51.07;99998.41;5067477;28;1016;-58
2023/08/29 06:37:43;;;;;;;;;;;;;;;17.30;51.48;100002.66;5059244;28;1087;-58
2023/08/29 06:40:10;;;;;;;;;;;;;;;17.32;51.37;100004.00;5067088;28;984;-58
2023/08/29 06:42:36;;;;;;;;;;;;;;;17.34;51.32;100006.44;5072626;28;1174;-58
2023/08/29 06:45:02;;;;;;;;;;;;;;;17.37;51.42;100003.09;5066799;28;1094;-58
2023/08/29 06:47:28;;;;;;;;;;;;;;;17.31;51.56;99994.13;5072178;28;1400;-58
2023/08/29 06:49:54;;;;;;;;;;;;;;;17.38;51.31;99999.25;5055437;28;1346;-58
2023/08/29 06:52:21;;;;;;;;;;;;;;;17.31;51.54;99994.13;5072525;28;1165;-58
2023/08/29 06:54:46;;;;;;;;;;;;;;;17.31;51.75;99993.31;5076917;28;1967;-58
2023/08/29 06:57:12;;;;;;;;;;;;;;;17.30;51.82;99997.16;5058818;28;2324;-59
2023/08/29 06:59:37;;;;;;;;;;;;;;;17.34;51.72;99996.25;5056280;28;1186;-58
2023/08/29 07:02:03;;;;;;;;;;;;;;;17.31;51.62;99994.13;5060512;28;1562;-58
2023/08/29 07:04:28;;;;;;;;;;;;;;;17.34;51.87;99993.50;5049205;28;1039;-58
2023/08/29 07:06:54;;;;;;;;;;;;;;;17.30;52.02;99989.72;5071634;28;1087;-58
2023/08/29 07:09:20;;;;;;;;;;;;;;;17.34;51.79;99988.03;5056135;28;1131;-58
2023/08/29 07:11:45;;;;;;;;;;;;;;;17.40;51.77;99986.84;5060156;28;1004;-58
2023/08/29 07:14:11;;;;;;;;;;;;;;;17.35;52.04;99992.41;5075781;28;1910;-58
2023/08/29 07:16:36;;;;;;;;;;;;;;;17.35;51.86;99988.81;5060955;28;1143;-58
2023/08/29 07:19:02;;;;;;;;;;;;;;;17.36;51.81;99990.47;5076333;28;1043;-58
2023/08/29 07:21:28;;;;;;;;;;;;;;;17.32;52.06;99989.44;5076111;28;1071;-57
2023/08/29 07:23:54;;;;;;;;;;;;;;;17.38;51.96;99991.81;5065121;28;1407;-56
2023/08/29 07:26:20;;;;;;;;;;;;;;;17.35;52.15;99995.16;5062573;28;2401;-58
2023/08/29 07:28:45;;;;;;;;;;;;;;;17.34;51.99;99988.03;5058214;28;1104;-58
2023/08/29 07:31:11;;;;;;;;;;;;;;;17.37;52.19;99987.41;5061689;28;1186;-55
2023/08/29 07:33:36;;;;;;;;;;;;;;;17.41;52.02;99988.44;5066233;28;1972;-57
2023/08/29 07:36:02;;;;;;;;;;;;;;;17.39;52.15;99984.38;5058949;28;1058;-57
2023/08/29 07:38:28;;;;;;;;;;;;;;;17.40;52.10;99980.50;5066395;28;1516;-57
2023/08/29 07:40:53;;;;;;;;;;;;;;;17.36;52.17;99972.06;5058054;28;1177;-59
2023/08/29 07:43:19;;;;;;;;;;;;;;;17.39;52.10;99981.63;5066499;28;1173;-61
2023/08/29 07:45:46;;;;;;;;;;;;;;;17.29;52.45;99979.84;5069106;28;1530;-56
2023/08/29 07:48:12;;;;;;;;;;;;;;;17.42;52.32;99975.53;5065738;28;1059;-59
2023/08/29 07:50:37;;;;;;;;;;;;;;;17.43;52.17;99979.91;5059747;28;1046;-61
2023/08/29 07:53:03;;;;;;;;;;;;;;;17.36;52.49;99980.31;5064189;28;1909;-57
2023/08/29 07:55:28;;;;;;;;;;;;;;;17.40;52.32;99981.34;5072106;28;2305;-56
2023/08/29 07:57:56;;;;;;;;;;;;;;;17.40;52.27;99970.34;5055361;28;961;-56
2023/08/29 08:00:21;;;;;;;;;;;;;;;17.42;52.42;99965.34;5068680;28;1060;-59
2023/08/29 08:02:47;;;;;;;;;;;;;;;17.42;52.25;99973.59;5055827;28;1197;-58
2023/08/29 08:05:13;;;;;;;;;;;;;;;17.44;52.26;99968.59;5055633;28;1070;-57
2023/08/29 08:07:39;;;;;;;;;;;;;;;17.48;52.52;99957.03;5055956;28;995;-58
2023/08/29 08:10:05;;;;;;;;;;;;;;;17.42;52.44;99962.59;5068811;28;1020;-59
2023/08/29 08:12:31;;;;;;;;;;;;;;;17.49;52.35;99961.41;5063889;28;1035;-59
2023/08/29 08:14:56;;;;;;;;;;;;;;;17.50;52.30;99968.53;5059360;28;1977;-55
2023/08/29 08:17:22;;;;;;;;;;;;;;;17.47;52.52;99974.63;5064198;28;1031;-57
2023/08/29 08:19:47;;;;;;;;;;;;;;;17.44;52.61;99976.84;5077674;28;1070;-58
2023/08/29 08:22:13;;;;;;;;;;;;;;;17.47;52.62;99975.44;5079555;28;1030;-56
2023/08/29 08:24:40;;;;;;;;;;;;;;;17.49;52.75;99975.97;5063341;28;1123;-58
2023/08/29 08:27:06;;;;;;;;;;;;;;;17.51;52.73;99975.69;5066136;28;2519;-58
2023/08/29 08:29:31;;;;;;;;;;;;;;;17.49;52.73;99961.41;5063587;28;1131;-60
2023/08/29 08:31:58;;;;;;;;;;;;;;;17.54;52.49;99959.38;5079396;28;1510;-59
2023/08/29 08:34:23;;;;;;;;;;;;;;;17.50;52.84;99952.88;5061988;28;1983;-58
2023/08/29 08:36:49;;;;;;;;;;;;;;;17.52;52.92;99955.31;5058865;28;1067;-56
2023/08/29 08:39:14;;;;;;;;;;;;;;;17.55;52.86;99947.28;5071940;28;1564;-58
2023/08/29 08:41:40;;;;;;;;;;;;;;;17.50;52.74;99949.28;5068043;28;1015;-58
2023/08/29 08:44:08;;;;;;;;;;;;;;;17.51;52.78;99951.75;5078788;28;1110;-58
2023/08/29 08:46:33;;;;;;;;;;;;;;;17.54;52.93;99953.09;5068966;28;1205;-58
2023/08/29 08:48:59;;;;;;;;;;;;;;;17.56;52.81;99951.66;5041097;28;1178;-58
2023/08/29 08:51:24;;;;;;;;;;;;;;;17.57;52.78;99957.97;5040991;28;1224;-58
2023/08/29 08:53:50;;;;;;;;;;;;;;;17.55;52.71;99961.03;5056529;28;1978;-58
2023/08/29 08:56:16;;;;;;;;;;;;;;;17.55;52.90;99960.22;5069270;28;2195;-58
2023/08/29 08:58:41;;;;;;;;;;;;;;;17.56;52.74;99961.84;5074610;28;1067;-58
2023/08/29 09:01:07;;;;;;;;;;;;;;;17.56;53.19;99961.84;5060412;28;1127;-58
2023/08/29 09:03:34;;;;;;;;;;;;;;;17.55;52.95;99962.97;5064988;28;1036;-58
2023/08/29 09:05:59;;;;;;;;;;;;;;;17.57;52.84;99958.81;5077206;28;1062;-58
2023/08/29 09:08:25;;;;;;;;;;;;;;;17.55;52.97;99961.03;5075232;28;1108;-58
2023/08/29 09:10:51;;;;;;;;;;;;;;;17.57;53.05;99957.97;5058324;28;1050;-58
2023/08/29 09:13:17;;;;;;;;;;;;;;;17.64;52.82;99963.09;5074249;28;1901;-58
2023/08/29 09:15:42;;;;;;;;;;;;;;;17.63;53.06;99962.28;5078204;28;1081;-58
2023/08/29 09:18:13;;;;;;;;;;;;;;;17.60;53.07;99954.66;5050240;28;1075;-58
2023/08/29 09:20:41;;;;;;;;;;;;;;;17.58;53.04;99949.41;5050017;28;1007;-58
2023/08/29 09:23:19;;;;;;;;;;;;;;;17.56;53.15;99959.91;5071742;28;1102;-59
2023/08/29 09:25:51;;;;;;;;;;;;;;;17.61;53.11;99964.50;5065204;28;2424;-58
2023/08/29 09:28:16;;;;;;;;;;;;;;;17.60;53.16;99968.41;5058394;28;1083;-57
2023/08/29 09:30:42;;;;;;;;;;;;;;;17.60;53.10;99971.94;5051599;28;1249;-55
2023/08/29 09:33:08;;;;;;;;;;;;;;;17.58;53.22;99970.59;5059573;28;1910;-57
2023/08/29 09:35:33;;;;;;;;;;;;;;;17.57;53.24;99964.31;5077699;28;1169;-57
2023/08/29 09:37:59;;;;;;;;;;;;;;;17.65;53.21;99964.72;5077326;28;1070;-56
2023/08/29 09:40:25;;;;;;;;;;;;;;;17.64;53.33;99965.84;5047217;28;1059;-57
2023/08/29 09:43:00;;;;;;;;;;;;;;;17.62;53.46;99947.72;5062130;28;1190;-57
2023/08/29 09:45:28;;;;;;;;;;;;;;;17.64;53.20;99944.66;5071098;28;999;-56
2023/08/29 09:47:56;;;;;;;;;;;;;;;17.72;52.94;99943.97;5069758;28;1210;-56
2023/08/29 09:50:22;;;;;;;;;;;;;;;17.69;53.28;99950.06;5059309;28;1189;-59
2023/08/29 09:52:49;;;;;;;;;;;;;;;17.68;53.31;99948.44;5076802;28;1914;-60
2023/08/29 09:55:15;;;;;;;;;;;;;;;17.70;53.27;99956.41;5063869;28;1816;-61
2023/08/29 09:57:41;;;;;;;;;;;;;;;17.72;53.27;99952.22;5059648;28;1146;-60
2023/08/29 10:00:09;;;;;;;;;;;;;;;17.65;53.62;99948.25;5063955;28;1121;-60
2023/08/29 10:02:35;;;;;;;;;;;;;;;17.67;53.49;99946.81;5059830;28;1050;-60
2023/08/29 10:05:05;;;;;;;;;;;;;;;17.74;53.35;99947.25;5061945;28;1050;-60
2023/08/29 10:07:37;;;;;;;;;;;;;;;17.67;53.46;99941.31;5071924;28;843;-60
2023/08/29 10:10:03;;;;;;;;;;;;;;;17.70;53.58;99940.72;5077148;28;1193;-60
2023/08/29 10:12:29;;;;;;;;;;;;;;;17.71;53.69;99947.84;5067029;28;1226;-60
2023/08/29 10:14:54;;;;;;;;;;;;;;;17.69;53.50;99944.56;5056895;28;1976;-60
2023/08/29 10:17:20;;;;;;;;;;;;;;;17.65;53.62;99943.53;5056692;28;1142;-60
2023/08/29 10:19:45;;;;;;;;;;;;;;;17.72;53.67;99943.97;5073279;28;1095;-60
2023/08/29 10:22:11;;;;;;;;;;;;;;;17.78;53.50;99934.53;5058803;28;1133;-60
2023/08/29 10:24:37;;;;;;;;;;;;;;;17.69;53.75;99933.56;5060451;28;1114;-60
2023/08/29 10:27:05;;;;;;;;;;;;;;;17.73;53.61;99928.31;5056353;28;2672;-60
2023/08/29 10:29:31;;;;;;;;;;;;;;;17.77;53.59;99943.09;5059697;28;1032;-61
2023/08/29 10:31:57;;;;;;;;;;;;;;;17.70;53.82;99934.41;5058499;28;970;-60
2023/08/29 10:34:24;;;;;;;;;;;;;;;17.71;53.89;99938.78;5073701;28;1971;-60
2023/08/29 10:36:49;;;;;;;;;;;;;;;17.72;53.62;99932.16;5056228;28;1123;-60
2023/08/29 10:39:15;;;;;;;;;;;;;;;17.69;53.75;99933.56;5069716;28;1063;-60
2023/08/29 10:41:46;;;;;;;;;;;;;;;17.78;53.67;99920.78;5066018;28;1114;-60
2023/08/29 10:44:24;;;;;;;;;;;;;;;17.75;53.59;99926.06;5075723;28;876;-60
2023/08/29 10:46:50;;;;;;;;;;;;;;;17.70;54.04;99934.41;5064652;28;1008;-60
2023/08/29 10:49:16;;;;;;;;;;;;;;;17.71;53.98;99939.59;5070135;28;1134;-60
2023/08/29 10:51:43;;;;;;;;;;;;;;;17.73;53.96;99942.06;5056089;28;1122;-60
2023/08/29 10:54:08;;;;;;;;;;;;;;;17.73;54.04;99944.81;5056851;28;1976;-60
2023/08/29 10:56:42;;;;;;;;;;;;;;;17.74;53.92;99935.41;5046094;28;2191;-59
2023/08/29 10:59:26;;;;;;;;;;;;;;;17.76;53.96;99942.25;5056506;28;1008;-60
2023/08/29 11:01:52;;;;;;;;;;;;;;;17.81;53.97;99937.78;5072026;28;1082;-59
2023/08/29 11:04:18;;;;;;;;;;;;;;;17.78;54.02;99931.78;5049486;28;1103;-60
2023/08/29 11:06:53;;;;;;;;;;;;;;;17.76;54.04;99938.69;5035786;28;1152;-57
2023/08/29 11:09:20;;;;;;;;;;;;;;;17.84;53.65;99929.75;5065397;28;1134;-58
2023/08/29 11:12:05;;;;;;;;;;;;;;;17.71;54.24;99942.34;5069514;28;996;-60
2023/08/29 11:14:50;;;;;;;;;;;;;;;17.73;54.09;99929.09;5056108;28;1938;-57
2023/08/29 11:17:22;;;;;;;;;;;;;;;17.74;54.26;99933.50;5055657;28;1095;-57
2023/08/29 11:19:51;;;;;;;;;;;;;;;17.75;54.14;99926.88;5068595;28;988;-57
2023/08/29 11:22:17;;;;;;;;;;;;;;;17.70;54.11;99924.22;5065785;28;1026;-58
2023/08/29 11:24:42;;;;;;;;;;;;;;;17.81;54.10;99932.28;5038507;28;1082;-57
2023/08/29 11:27:08;;;;;;;;;;;;;;;17.71;54.13;99925.88;5072923;28;2610;-58
2023/08/29 11:29:36;;;;;;;;;;;;;;;17.80;54.07;99920.47;5040817;28;1629;-58
2023/08/29 11:32:02;;;;;;;;;;;;;;;17.76;54.01;99930.44;5069966;28;869;-56
2023/08/29 11:34:28;;;;;;;;;;;;;;;17.74;54.14;99936.25;5062218;28;1901;-56
2023/08/29 11:36:54;;;;;;;;;;;;;;;17.83;53.82;99935.56;5075941;28;1074;-57
2023/08/29 11:39:19;;;;;;;;;;;;;;;17.74;54.11;99929.91;5062319;28;1174;-57
2023/08/29 11:41:45;;;;;;;;;;;;;;;17.73;54.09;99929.09;5064905;28;1046;-56
2023/08/29 11:44:11;;;;;;;;;;;;;;;17.74;54.28;99930.75;5065830;28;1162;-57
2023/08/29 11:46:36;;;;;;;;;;;;;;;17.75;54.08;99929.63;5055794;28;1040;-58
2023/08/29 11:49:14;;;;;;;;;;;;;;;17.77;54.12;99930.13;5068860;28;1055;-58
2023/08/29 11:51:40;;;;;;;;;;;;;;;17.74;54.13;99936.25;5068070;28;1103;-56
2023/08/29 11:54:26;;;;;;;;;;;;;;;17.72;54.29;99938.47;5045877;28;1898;-58
2023/08/29 11:56:51;;;;;;;;;;;;;;;17.74;54.00;99929.91;5078850;28;1795;-58
2023/08/29 11:59:17;;;;;;;;;;;;;;;17.74;54.13;99944.50;5053315;28;1310;-57
2023/08/29 12:01:42;;;;;;;;;;;;;;;17.71;54.25;99933.28;5074692;28;1095;-57
2023/08/29 12:04:08;;;;;;;;;;;;;;;17.73;54.15;99928.31;5079211;28;1146;-56
2023/08/29 12:06:34;;;;;;;;;;;;;;;17.73;54.29;99934.59;5077792;28;1106;-55
2023/08/29 12:08:59;;;;;;;;;;;;;;;17.73;54.05;99934.59;5078664;28;945;-56
2023/08/29 12:11:29;;;;;;;;;;;;;;;17.71;54.19;99936.03;5076999;28;1059;-57
2023/08/29 12:14:01;;;;;;;;;;;;;;;17.70;54.15;99926.97;5041335;28;1969;-57
2023/08/29 12:16:28;;;;;;;;;;;;;;;17.72;54.09;99927.47;5075180;28;1196;-56
2023/08/29 12:19:06;;;;;;;;;;;;;;;17.66;54.23;99922.38;5077198;28;1174;-56
2023/08/29 12:21:32;;;;;;;;;;;;;;;17.76;53.93;99916.69;5059259;28;1079;-59
2023/08/29 12:24:07;;;;;;;;;;;;;;;17.71;54.16;99925.88;5078872;28;1014;-60
2023/08/29 12:26:33;;;;;;;;;;;;;;;17.74;54.01;99916.16;5065718;28;2474;-57
2023/08/29 12:28:59;;;;;;;;;;;;;;;17.72;54.06;99915.66;5059279;28;1103;-58
2023/08/29 12:31:24;;;;;;;;;;;;;;;17.74;54.00;99911.50;5063775;28;1194;-57
2023/08/29 12:33:50;;;;;;;;;;;;;;;17.73;53.96;99906.31;5079096;28;1956;-60
2023/08/29 12:36:15;;;;;;;;;;;;;;;17.70;54.13;99899.47;5059943;28;1011;-58
2023/08/29 12:38:41;;;;;;;;;;;;;;;17.75;54.08;99899.41;5070517;28;1055;-58
2023/08/29 12:41:06;;;;;;;;;;;;;;;17.73;54.20;99896.13;5073842;28;1078;-59
2023/08/29 12:43:32;;;;;;;;;;;;;;;17.77;53.90;99897.13;5064284;28;1007;-59
2023/08/29 12:45:58;;;;;;;;;;;;;;;17.70;54.24;99896.72;5078212;28;1088;-60
2023/08/29 12:48:23;;;;;;;;;;;;;;;17.76;54.17;99895.50;5067038;28;1099;-57